createdAt,value
2019-04-21T00:02:32.385Z,38.57
2019-04-21T00:05:20.028Z,39.93
2019-04-21T00:07:49.096Z,41.23
2019-04-21T00:10:18.415Z,44.23
2019-04-21T00:12:45.925Z,39.67
2019-04-21T00:15:12.177Z,39.90
2019-04-21T00:17:31.667Z,46.93
2019-04-21T00:20:13.797Z,42.90
2019-04-21T00:22:44.337Z,46.20
2019-04-21T00:25:21.055Z,45.60
2019-04-21T00:27:55.208Z,41.17
2019-04-21T00:30:32.928Z,41.07
2019-04-21T00:32:50.302Z,36.17
2019-04-21T00:35:13.366Z,39.10
2019-04-21T00:38:08.984Z,43.97
2019-04-21T00:40:27.774Z,38.97
2019-04-21T00:42:59.896Z,48.07
2019-04-21T00:45:26.558Z,42.73
2019-04-21T00:48:04.045Z,46.40
2019-04-21T00:50:40.624Z,38.03
2019-04-21T00:53:10.517Z,39.47
2019-04-21T00:55:48.634Z,43.63
2019-04-21T00:58:17.542Z,46.47
2019-04-21T01:00:46.383Z,40.47
2019-04-21T01:03:20.616Z,48.87
2019-04-21T01:05:51.715Z,45.50
2019-04-21T01:08:17.650Z,54.23
2019-04-21T01:10:38.561Z,47.93
2019-04-21T01:13:23.601Z,45.53
2019-04-21T01:15:51.491Z,41.67
2019-04-21T01:18:16.771Z,46.77
2019-04-21T01:20:27.493Z,49.80
2019-04-21T01:22:56.240Z,46.73
2019-04-21T01:25:34.885Z,54.80
2019-04-21T01:28:13.520Z,43.93
2019-04-21T01:30:48.878Z,45.40
2019-04-21T01:33:24.667Z,43.90
2019-04-21T01:35:48.490Z,47.70
2019-04-21T01:38:21.652Z,41.87
2019-04-21T01:40:46.677Z,45.83
2019-04-21T01:43:17.630Z,53.60
2019-04-21T01:45:49.385Z,43.40
2019-04-21T01:48:18.446Z,50.87
2019-04-21T01:50:48.306Z,48.60
2019-04-21T01:53:34.786Z,53.57
2019-04-21T01:56:18.400Z,52.10
2019-04-21T01:58:40.247Z,54.33
2019-04-21T02:01:25.543Z,51.37
2019-04-21T02:04:07.241Z,48.33
2019-04-21T02:06:27.682Z,53.37
2019-04-21T02:08:53.203Z,47.83
2019-04-21T02:11:32.778Z,57.33
2019-04-21T02:14:04.731Z,57.40
2019-04-21T02:16:32.720Z,51.10
2019-04-21T02:18:55.584Z,52.20
2019-04-21T02:21:21.681Z,44.20
2019-04-21T02:24:05.049Z,48.90
2019-04-21T02:26:28.560Z,44.23
2019-04-21T02:29:00.187Z,50.63
2019-04-21T02:31:57.081Z,52.80
2019-04-21T02:34:06.419Z,44.47
2019-04-21T02:36:52.914Z,46.93
2019-04-21T02:39:13.263Z,55.93
2019-04-21T02:41:51.694Z,47.87
2019-04-21T02:44:21.734Z,51.63
2019-04-21T02:46:46.299Z,59.40
2019-04-21T02:49:22.842Z,53.27
2019-04-21T02:51:42.577Z,51.00
2019-04-21T02:54:41.738Z,54.13
2019-04-21T02:56:48.702Z,56.90
2019-04-21T02:59:17.248Z,52.77
2019-04-21T03:02:03.611Z,54.07
2019-04-21T03:04:43.096Z,49.80
2019-04-21T03:07:13.234Z,46.80
2019-04-21T03:09:37.044Z,44.40
2019-04-21T03:17:14.265Z,47.13
2019-04-21T03:19:53.724Z,47.27
2019-04-21T03:22:57.617Z,47.27
2019-04-21T03:29:57.114Z,44.23
2019-04-21T03:35:19.342Z,43.93
2019-04-21T03:39:56.814Z,38.23
2019-04-21T03:42:25.645Z,35.83
2019-04-21T03:44:45.334Z,40.57
2019-04-21T03:47:24.968Z,45.50
2019-04-21T03:49:54.582Z,39.50
2019-04-21T03:52:19.856Z,45.97
2019-04-21T03:55:50.425Z,38.60
2019-04-21T03:58:13.096Z,41.27
2019-04-21T04:03:10.579Z,37.37
2019-04-21T04:08:17.927Z,37.93
2019-04-21T04:10:36.475Z,38.27
2019-04-21T04:13:09.583Z,42.57
2019-04-21T04:18:04.330Z,38.27
2019-04-21T04:20:35.585Z,38.50
2019-04-21T04:23:24.942Z,38.57
2019-04-21T04:25:37.476Z,43.13
2019-04-21T04:30:43.684Z,39.10
2019-04-21T04:33:08.037Z,40.33
2019-04-21T04:35:52.850Z,42.53
2019-04-21T04:38:30.102Z,41.40
2019-04-21T04:40:57.828Z,42.23
2019-04-21T04:43:26.884Z,42.83
2019-04-21T04:45:53.683Z,40.50
2019-04-21T04:48:27.910Z,41.47
2019-04-21T04:53:43.978Z,41.27
2019-04-21T04:58:54.614Z,40.87
2019-04-21T05:01:21.489Z,37.17
2019-04-21T05:03:44.497Z,40.03
2019-04-21T05:06:38.867Z,45.13
2019-04-21T05:11:40.204Z,40.10
2019-04-21T05:13:55.006Z,38.87
2019-04-21T05:16:37.007Z,42.20
2019-04-21T05:19:06.388Z,42.27
2019-04-21T05:21:30.180Z,43.53
2019-04-21T05:23:48.391Z,45.27
2019-04-21T05:26:09.907Z,39.67
2019-04-21T05:28:41.964Z,39.57
2019-04-21T05:31:19.872Z,44.63
2019-04-21T05:33:54.327Z,41.43
2019-04-21T05:36:39.121Z,42.23
2019-04-21T05:39:14.752Z,45.03
2019-04-21T05:41:38.604Z,43.23
2019-04-21T05:44:21.350Z,45.00
2019-04-21T05:46:59.441Z,40.40
2019-04-21T05:49:25.298Z,36.73
2019-04-21T05:51:58.473Z,38.07
2019-04-21T05:57:05.761Z,40.53
2019-04-21T05:59:40.480Z,38.57
2019-04-21T06:02:20.908Z,40.00
2019-04-21T06:05:02.030Z,37.90
2019-04-21T06:07:13.682Z,36.93
2019-04-21T06:09:48.855Z,39.67
2019-04-21T06:12:08.734Z,41.80
2019-04-21T06:14:45.283Z,41.13
2019-04-21T06:17:19.393Z,39.47
2019-04-21T06:22:10.427Z,39.20
2019-04-21T06:24:54.260Z,44.10
2019-04-21T06:27:18.925Z,44.83
2019-04-21T06:29:46.615Z,47.07
2019-04-21T06:32:30.476Z,45.47
2019-04-21T06:35:00.729Z,40.03
2019-04-21T06:40:03.187Z,39.70
2019-04-21T06:42:14.993Z,43.87
2019-04-21T06:44:53.767Z,38.53
2019-04-21T06:47:26.537Z,38.13
2019-04-21T06:49:45.652Z,39.73
2019-04-21T06:52:42.308Z,38.00
2019-04-21T06:57:21.759Z,40.97
2019-04-21T06:59:43.433Z,34.37
2019-04-21T07:02:36.157Z,43.47
2019-04-21T07:04:54.738Z,37.47
2019-04-21T07:07:21.732Z,36.57
2019-04-21T07:09:55.080Z,39.97
2019-04-21T07:12:18.843Z,36.30
2019-04-21T07:14:52.781Z,37.43
2019-04-21T07:17:24.671Z,38.87
2019-04-21T07:19:57.431Z,39.53
2019-04-21T07:22:24.571Z,31.93
2019-04-21T07:25:00.704Z,32.40
2019-04-21T07:27:33.899Z,34.27
2019-04-21T07:29:58.248Z,32.90
2019-04-21T07:32:27.787Z,33.70
2019-04-21T07:34:57.662Z,39.03
2019-04-21T07:37:23.996Z,33.50
2019-04-21T07:39:57.434Z,32.03
2019-04-21T07:42:24.103Z,32.83
2019-04-21T07:44:54.792Z,33.23
2019-04-21T07:47:28.397Z,34.93
2019-04-21T07:50:04.972Z,33.77
2019-04-21T07:52:55.374Z,42.67
2019-04-21T07:57:31.388Z,31.17
2019-04-21T08:00:22.693Z,32.50
2019-04-21T08:02:34.010Z,34.43
2019-04-21T08:05:13.485Z,38.07
2019-04-21T08:07:49.254Z,37.37
2019-04-21T08:10:03.152Z,35.25
2019-04-21T08:12:37.981Z,33.10
2019-04-21T08:15:15.490Z,36.30
2019-04-21T08:17:41.516Z,36.80
2019-04-21T08:20:11.386Z,36.95
2019-04-21T08:22:46.560Z,35.27
2019-04-21T08:25:11.792Z,34.17
2019-04-21T08:27:47.829Z,33.50
2019-04-21T08:30:11.570Z,36.28
2019-04-21T08:32:57.581Z,34.48
2019-04-21T08:35:37.925Z,32.65
2019-04-21T08:37:46.083Z,37.98
2019-04-21T08:40:23.444Z,36.42
2019-04-21T08:42:49.098Z,37.83
2019-04-21T08:45:15.137Z,36.65
2019-04-21T08:47:47.432Z,35.20
2019-04-21T08:50:15.313Z,36.55
2019-04-21T08:52:49.265Z,33.65
2019-04-21T08:55:25.273Z,37.67
2019-04-21T08:58:15.527Z,38.53
2019-04-21T09:00:46.784Z,39.05
2019-04-21T09:03:23.443Z,38.35
2019-04-21T09:06:03.997Z,36.68
2019-04-21T09:08:28.141Z,34.08
2019-04-21T09:10:56.065Z,33.40
2019-04-21T09:13:24.829Z,33.08
2019-04-21T09:15:54.890Z,30.30
2019-04-21T09:18:22.865Z,31.15
2019-04-21T09:20:59.960Z,35.70
2019-04-21T09:23:26.129Z,29.07
2019-04-21T09:26:07.353Z,33.95
2019-04-21T09:28:27.222Z,32.67
2019-04-21T09:30:51.979Z,41.25
2019-04-21T09:33:18.429Z,37.63
2019-04-21T09:35:55.532Z,34.83
2019-04-21T09:38:28.804Z,36.40
2019-04-21T09:40:51.333Z,43.08
2019-04-21T09:43:29.434Z,41.58
2019-04-21T09:45:49.645Z,39.88
2019-04-21T09:48:21.094Z,37.70
2019-04-21T09:50:50.334Z,34.53
2019-04-21T09:53:26.869Z,32.90
2019-04-21T09:55:55.880Z,32.48
2019-04-21T09:58:29.269Z,34.18
2019-04-21T10:01:01.119Z,29.63
2019-04-21T10:03:21.246Z,32.78
2019-04-21T10:05:51.858Z,32.53
2019-04-21T10:08:20.924Z,33.63
2019-04-21T10:10:49.670Z,33.42
2019-04-21T10:13:18.444Z,35.45
2019-04-21T10:15:48.930Z,37.08
2019-04-21T10:18:21.823Z,31.68
2019-04-21T10:20:51.265Z,34.65
2019-04-21T10:23:21.149Z,32.10
2019-04-21T10:25:50.597Z,31.37
2019-04-21T10:28:19.477Z,34.15
2019-04-21T10:30:48.984Z,31.70
2019-04-21T10:33:18.575Z,29.20
2019-04-21T10:35:48.831Z,30.90
2019-04-21T10:38:28.029Z,32.20
2019-04-21T10:40:49.623Z,28.25
2019-04-21T10:43:21.871Z,26.75
2019-04-21T10:45:48.920Z,29.18
2019-04-21T10:48:18.917Z,27.45
2019-04-21T10:50:47.697Z,25.27
2019-04-21T10:53:18.813Z,28.35
2019-04-21T10:56:00.415Z,28.73
2019-04-21T10:58:22.744Z,27.37
2019-04-21T11:00:54.156Z,30.68
2019-04-21T11:03:25.136Z,27.37
2019-04-21T11:05:58.919Z,29.48
2019-04-21T11:08:32.360Z,27.07
2019-04-21T11:10:58.559Z,29.23
2019-04-21T11:13:28.349Z,33.88
2019-04-21T11:15:57.295Z,28.17
2019-04-21T11:18:26.073Z,25.32
2019-04-21T11:20:55.193Z,29.77
2019-04-21T11:23:25.045Z,35.48
2019-04-21T11:25:54.010Z,30.35
2019-04-21T11:28:22.979Z,41.18
2019-04-21T11:30:53.074Z,38.85
2019-04-21T11:33:22.840Z,39.08
2019-04-21T11:35:53.157Z,42.10
2019-04-21T11:38:31.901Z,35.95
2019-04-21T11:41:00.129Z,37.10
2019-04-21T11:43:28.853Z,37.10
2019-04-21T11:45:58.144Z,36.45
2019-04-21T11:48:28.561Z,38.88
2019-04-21T11:50:59.159Z,36.77
2019-04-21T11:53:28.739Z,43.80
2019-04-21T11:55:58.749Z,36.03
2019-04-21T11:58:27.849Z,41.95
2019-04-21T12:01:00.012Z,34.38
2019-04-21T12:03:29.518Z,34.03
2019-04-21T12:05:59.502Z,37.67
2019-04-21T12:08:36.469Z,37.28
2019-04-21T12:10:59.736Z,38.95
2019-04-21T12:13:29.918Z,32.55
2019-04-21T12:15:59.083Z,31.30
2019-04-21T12:18:30.020Z,31.65
2019-04-21T12:20:58.470Z,33.23
2019-04-21T12:23:27.320Z,28.20
2019-04-21T12:25:56.993Z,31.40
2019-04-21T12:28:26.043Z,31.48
2019-04-21T12:30:55.973Z,33.55
2019-04-21T12:33:36.256Z,32.93
2019-04-21T12:36:06.161Z,30.72
2019-04-21T12:38:42.749Z,32.42
2019-04-21T12:41:06.551Z,33.13
2019-04-21T12:43:36.875Z,36.30
2019-04-21T12:46:05.818Z,30.57
2019-04-21T12:48:35.738Z,30.15
2019-04-21T12:51:06.085Z,30.10
2019-04-21T12:53:35.930Z,32.00
2019-04-21T12:56:05.426Z,31.42
2019-04-21T12:58:35.276Z,33.95
2019-04-21T13:01:05.049Z,35.13
2019-04-21T13:03:34.144Z,37.55
2019-04-21T13:06:03.464Z,33.45
2019-04-21T13:08:41.529Z,40.35
2019-04-21T13:11:02.752Z,34.88
2019-04-21T13:13:32.206Z,38.15
2019-04-21T13:16:01.206Z,34.10
2019-04-21T13:18:31.181Z,37.55
2019-04-21T13:21:02.100Z,39.27
2019-04-21T13:23:31.294Z,37.70
2019-04-21T13:26:03.121Z,35.83
2019-04-21T13:28:30.504Z,32.73
2019-04-21T13:31:00.189Z,38.95
2019-04-21T13:33:29.282Z,32.10
2019-04-21T13:35:59.264Z,36.55
2019-04-21T13:38:36.367Z,33.85
2019-04-21T13:41:22.794Z,36.53
2019-04-21T13:43:37.102Z,36.80
2019-04-21T13:46:06.173Z,35.65
2019-04-21T13:48:34.950Z,37.10
2019-04-21T13:51:04.923Z,36.28
2019-04-21T13:53:34.916Z,36.60
2019-04-21T13:56:04.800Z,35.78
2019-04-21T13:58:34.572Z,31.40
2019-04-21T14:01:03.668Z,35.33
2019-04-21T14:03:33.402Z,38.00
2019-04-21T14:06:02.538Z,31.15
2019-04-21T14:08:31.427Z,40.35
2019-04-21T14:11:00.152Z,38.40
2019-04-21T14:13:30.295Z,35.05
2019-04-21T14:16:00.172Z,33.20
2019-04-21T14:18:28.957Z,35.65
2019-04-21T14:20:57.785Z,35.63
2019-04-21T14:23:33.603Z,35.35
2019-04-21T14:25:57.522Z,37.85
2019-04-21T14:28:26.337Z,34.78
2019-04-21T14:30:56.444Z,39.03
2019-04-21T14:33:25.709Z,38.30
2019-04-21T14:35:54.812Z,36.05
2019-04-21T14:38:24.941Z,37.15
2019-04-21T14:40:54.385Z,40.08
2019-04-21T14:43:23.755Z,39.13
2019-04-21T14:46:06.465Z,35.35
2019-04-21T14:48:43.162Z,37.33
2019-04-21T14:51:31.596Z,33.50
2019-04-21T14:54:02.090Z,42.05
2019-04-21T14:56:31.307Z,32.25
2019-04-21T14:59:01.361Z,34.13
2019-04-21T15:01:31.536Z,37.28
2019-04-21T15:04:01.548Z,34.10
2019-04-21T15:06:31.491Z,32.15
2019-04-21T15:09:00.915Z,29.75
2019-04-21T15:11:29.934Z,33.78
2019-04-21T15:13:59.768Z,31.95
2019-04-21T15:16:29.092Z,33.15
2019-04-21T15:18:58.907Z,32.30
2019-04-21T15:21:29.015Z,33.42
2019-04-21T15:23:58.209Z,30.02
2019-04-21T15:26:28.325Z,35.88
2019-04-21T15:28:57.314Z,33.38
2019-04-21T15:31:30.520Z,35.33
2019-04-21T15:33:57.108Z,31.23
2019-04-21T15:36:27.243Z,31.93
2019-04-21T15:38:56.208Z,33.18
2019-04-21T15:41:24.924Z,33.75
2019-04-21T15:43:54.375Z,30.23
2019-04-21T15:46:23.236Z,31.12
2019-04-21T15:48:52.982Z,31.95
2019-04-21T15:51:22.029Z,29.67
2019-04-21T15:53:51.997Z,35.85
2019-04-21T15:56:22.695Z,36.60
2019-04-21T15:58:59.116Z,36.20
2019-04-21T16:01:30.372Z,42.78
2019-04-21T16:04:02.106Z,33.63
2019-04-21T16:06:29.706Z,36.35
2019-04-21T16:09:00.962Z,33.58
2019-04-21T16:11:28.866Z,27.40
2019-04-21T16:13:57.711Z,36.15
2019-04-21T16:16:28.583Z,31.82
2019-04-21T16:18:58.274Z,31.87
2019-04-21T16:21:27.195Z,33.45
2019-04-21T16:23:56.469Z,30.30
2019-04-21T16:26:26.656Z,35.68
2019-04-21T16:28:55.715Z,29.48
2019-04-21T16:31:24.845Z,34.67
2019-04-21T16:33:54.722Z,29.90
2019-04-21T16:36:23.734Z,32.45
2019-04-21T16:38:53.581Z,30.95
2019-04-21T16:41:22.497Z,31.00
2019-04-21T16:43:51.494Z,30.52
2019-04-21T16:46:21.084Z,38.80
2019-04-21T16:48:50.006Z,33.70
2019-04-21T16:51:20.406Z,36.65
2019-04-21T16:53:52.098Z,36.00
2019-04-21T16:56:25.336Z,35.30
2019-04-21T16:58:59.014Z,35.33
2019-04-21T17:01:30.113Z,35.28
2019-04-21T17:04:00.281Z,33.28
2019-04-21T17:06:29.282Z,39.83
2019-04-21T17:08:59.013Z,34.80
2019-04-21T17:11:31.710Z,35.28
2019-04-21T17:14:00.087Z,35.38
2019-04-21T17:16:57.987Z,37.45
2019-04-21T17:19:11.373Z,29.80
2019-04-21T17:21:30.286Z,30.90
2019-04-21T17:23:59.483Z,31.90
2019-04-21T17:26:29.019Z,33.65
2019-04-21T17:28:58.731Z,31.82
2019-04-21T17:31:28.780Z,37.13
2019-04-21T17:34:06.276Z,34.25
2019-04-21T17:36:29.456Z,28.45
2019-04-21T17:38:59.979Z,32.00
2019-04-21T17:41:37.411Z,39.38
2019-04-21T17:44:00.419Z,31.45
2019-04-21T17:46:38.855Z,38.50
2019-04-21T17:49:01.022Z,32.10
2019-04-21T17:51:46.093Z,33.15
2019-04-21T17:54:17.418Z,32.17
2019-04-21T17:57:05.792Z,34.60
2019-04-21T17:59:47.633Z,30.57
2019-04-21T18:02:02.352Z,32.30
2019-04-21T18:04:34.725Z,29.92
2019-04-21T18:07:04.855Z,32.33
2019-04-21T18:09:51.120Z,28.92
2019-04-21T18:12:12.295Z,24.72
2019-04-21T18:14:26.431Z,30.20
2019-04-21T18:16:56.260Z,28.73
2019-04-21T18:19:28.708Z,29.87
2019-04-21T18:22:01.245Z,29.30
2019-04-21T18:24:40.629Z,30.25
2019-04-21T18:27:04.887Z,35.48
2019-04-21T18:29:31.736Z,28.67
2019-04-21T18:32:01.155Z,28.45
2019-04-21T18:34:44.285Z,27.80
2019-04-21T18:37:17.416Z,27.50
2019-04-21T18:40:04.900Z,29.23
2019-04-21T18:42:45.427Z,27.02
2019-04-21T18:48:04.885Z,29.23
2019-04-21T18:50:46.056Z,36.58
2019-04-21T18:53:24.029Z,28.93
2019-04-21T18:55:46.599Z,32.90
2019-04-21T18:58:13.408Z,29.93
2019-04-21T19:00:44.176Z,27.67
2019-04-21T19:03:13.688Z,20.92
2019-04-21T19:05:50.134Z,27.67
2019-04-21T19:08:26.526Z,25.02
2019-04-21T19:11:05.377Z,30.10
2019-04-21T19:16:22.496Z,26.30
2019-04-21T19:18:43.315Z,23.43
2019-04-21T19:21:04.139Z,26.63
2019-04-21T19:23:45.596Z,23.60
2019-04-21T19:26:14.849Z,21.80
2019-04-21T19:28:41.033Z,23.03
2019-04-21T19:31:14.417Z,32.80
2019-04-21T19:33:30.094Z,24.50
2019-04-21T19:35:49.652Z,29.30
2019-04-21T19:38:30.579Z,25.40
2019-04-21T19:41:02.055Z,23.53
2019-04-21T19:43:40.990Z,26.90
2019-04-21T19:46:11.403Z,30.33
2019-04-21T19:48:47.500Z,23.87
2019-04-21T19:51:10.435Z,23.67
2019-04-21T19:53:40.590Z,25.73
2019-04-21T19:55:52.149Z,24.93
2019-04-21T19:58:27.472Z,26.33
2019-04-21T20:00:54.642Z,31.10
2019-04-21T20:03:21.726Z,35.53
2019-04-21T20:06:00.362Z,27.87
2019-04-21T20:08:36.768Z,23.53
2019-04-21T20:11:10.448Z,22.50
2019-04-21T20:13:59.504Z,25.60
2019-04-21T20:16:16.187Z,23.20
2019-04-21T20:18:32.818Z,23.63
2019-04-21T20:20:54.376Z,24.27
2019-04-21T20:23:28.657Z,24.73
2019-04-21T20:25:59.988Z,25.83
2019-04-21T20:28:36.959Z,29.70
2019-04-21T20:31:14.813Z,27.00
2019-04-21T20:33:52.605Z,28.87
2019-04-21T20:36:15.052Z,38.07
2019-04-21T20:38:35.556Z,24.70
2019-04-21T20:41:01.855Z,24.50
2019-04-21T20:43:47.134Z,25.60
2019-04-21T20:46:12.333Z,29.83
2019-04-21T20:48:42.154Z,26.23
2019-04-21T20:51:13.046Z,34.53
2019-04-21T20:53:45.279Z,23.73
2019-04-21T20:56:11.134Z,28.07
2019-04-21T20:58:45.865Z,35.27
2019-04-21T21:03:58.028Z,26.50
2019-04-21T21:06:20.521Z,29.07
2019-04-21T21:08:49.843Z,23.47
2019-04-21T21:11:15.144Z,23.47
2019-04-21T21:13:50.965Z,25.83
2019-04-21T21:16:29.721Z,23.20
2019-04-21T21:19:06.937Z,22.40
2019-04-21T21:21:23.467Z,24.03
2019-04-21T21:23:52.977Z,28.90
2019-04-21T21:26:28.264Z,22.97
2019-04-21T21:28:42.945Z,32.27
2019-04-21T21:31:24.890Z,29.57
2019-04-21T21:34:03.414Z,26.77
2019-04-21T21:36:30.061Z,20.60
2019-04-21T21:38:56.199Z,24.77
2019-04-21T21:41:17.953Z,20.57
2019-04-21T21:43:39.495Z,22.40
2019-04-21T21:46:26.292Z,19.30
2019-04-21T21:48:51.403Z,29.27
2019-04-21T21:51:18.117Z,29.00
2019-04-21T21:53:40.655Z,20.67
2019-04-21T21:56:10.953Z,20.80
2019-04-21T21:58:43.926Z,24.10
2019-04-21T22:01:14.793Z,24.97
2019-04-21T22:03:46.595Z,24.97
2019-04-21T22:06:19.161Z,25.03
2019-04-21T22:08:43.906Z,19.87
2019-04-21T22:11:13.657Z,24.13
2019-04-21T22:13:49.747Z,19.00
2019-04-21T22:16:15.589Z,21.00
2019-04-21T22:19:04.598Z,22.47
2019-04-21T22:21:34.649Z,21.83
2019-04-21T22:23:54.852Z,18.63
2019-04-21T22:26:15.492Z,19.60
2019-04-21T22:28:45.539Z,21.47
2019-04-21T22:31:20.657Z,21.77
2019-04-21T22:33:49.728Z,20.57
2019-04-21T22:36:26.464Z,22.30
2019-04-21T22:39:05.126Z,27.63
2019-04-21T22:41:28.177Z,20.27
2019-04-21T22:43:51.180Z,23.10
2019-04-21T22:46:18.155Z,23.47
2019-04-21T22:48:53.204Z,27.00
2019-04-21T22:51:23.797Z,29.33
2019-04-21T22:53:51.888Z,23.63
2019-04-21T22:56:24.412Z,24.40
2019-04-21T22:58:49.977Z,18.50
2019-04-21T23:01:26.787Z,25.07
2019-04-21T23:03:55.588Z,16.80
2019-04-21T23:06:24.729Z,21.70
2019-04-21T23:08:51.220Z,13.53
2019-04-21T23:11:21.437Z,20.17
2019-04-21T23:13:57.597Z,16.70
2019-04-21T23:16:27.055Z,23.87
2019-04-21T23:19:14.327Z,17.33
2019-04-21T23:21:41.216Z,19.50
2019-04-21T23:24:13.473Z,17.67
2019-04-21T23:26:39.408Z,18.47
2019-04-21T23:29:15.491Z,22.90
2019-04-21T23:31:41.791Z,23.27
2019-04-21T23:33:54.617Z,17.20
2019-04-21T23:36:28.232Z,19.57
2019-04-21T23:38:56.469Z,17.33
2019-04-21T23:41:26.068Z,16.90
2019-04-21T23:43:59.367Z,23.00
2019-04-21T23:46:29.883Z,19.30
2019-04-21T23:49:07.401Z,22.43
2019-04-21T23:51:38.940Z,24.93
2019-04-21T23:53:57.418Z,19.87
2019-04-21T23:56:33.313Z,17.93
2019-04-21T23:59:02.983Z,21.23
